LFRB/BES METAR and TAF weather

Enter ICAO airport designator
Station Type Date Time Source
LFRB METAR 2019/04/25 08:00 UTC NOAA

LFRB 250800Z AUTO 21012KT 9999 SCT021/// BKN027/// BKN034/// ///TCU 10/06 Q0995 TEMPO 22015G25KT 4000 SHRA SCT014CB


Station Type Date Time Source
LFRB Decoded METAR 2019/04/25 08:00 UTC NOAA

Brest, France (LFRB) 48-27N 004-25W 103M
Apr 25, 2019 - 04:00 AM EDT / 2019.04.25 0800 UTC
Wind: from the SSW (210 degrees) at 14 MPH (12 KT):0
Visibility: greater than 7 mile(s):0
Sky conditions: mostly cloudy
Weather: Cumulonimbus clouds, towering cumulus clouds observed
Temperature: 50 F (10 C)
Dew Point: 42 F (6 C)
Relative Humidity: 76%
Pressure (altimeter): 29.38 in. Hg (0995 hPa)
ob: LFRB 250800Z AUTO 21012KT 9999 SCT021/// BKN027/// BKN034/// ///TCU 10/06 Q0995 TEMPO 22015G25KT 4000 SHRA SCT014CB
cycle: 8

Station Type Date Time Source
LFRB TAF 2019/04/25 06:21 UTC NOAA

TAF LFRB 250500Z 2506/2612 18010KT 9999 SCT016TCU BKN025
TEMPO 2506/2518 22015G25KT 4000 SHRA FEW014CB BKN020TCU PROB30
TEMPO 2508/2514 TSRAGS SCT014CB
BECMG 2518/2520 VRB06KT

Example: see airport list